Stockbridge, Vermont
Current Conditions -  °F | °C
As of 8:35 AM on Saturday 20 Dec 2014 (Local Time) from KRUT Reporting Station
Clear Clear  
Wind Chill:   Ceiling: Unl
Heat Index: 12°   Visibility: 10mi
Dew Point:   Wind: 8mph
Humidity: 85%   Direction: 120°ESE
Pressure: 30.29"   Gusts: NA
Location:  43.79°N, 72.75°W
Report Text: KRUT 201335Z 12007KT 10SM CLR M11/M13 A3029 RMK AO1
Loading
Personal Weather Stations






























Interactive Weather Map New forecast layout! Learn more

10-Day Weather Forecast

Advertisements
Track Severe Weather on mobile